Time;durP1;ratioP1;P1;durP2;ratioP2;P2;SDS_P1;SDS_P2;PMS_P1;PMS_P2;Temp;Humidity;BMP_temperature;BMP_pressure;BME280_temperature;BME280_humidity;BME280_pressure;Samples;Min_cycle;Max_cycle;Signal;HPM_P1;HPM_P2
2023/03/17 00:01:28;;;;;;;2.78;1.70;;;;;;;;;;4995545;28;20292;-68
2023/03/17 00:03:54;;;;;;;3.17;1.50;;;;;;;;;;4996421;28;20439;-71
2023/03/17 00:06:24;;;;;;;2.45;1.50;;;;;;;;;;5004633;28;20273;-66
2023/03/17 00:08:49;;;;;;;2.40;1.70;;;;;;;;;;5019327;28;20048;-64
2023/03/17 00:11:15;;;;;;;2.10;1.50;;;;;;;;;;5007064;28;20088;-70
2023/03/17 00:13:40;;;;;;;2.50;1.52;;;;;;;;;;5002836;28;20045;-69
2023/03/17 00:16:06;;;;;;;4.35;1.52;;;;;;;;;;5024359;28;20034;-64
2023/03/17 00:18:34;;;;;;;2.10;1.40;;;;;;;;;;5001994;28;20029;-69
2023/03/17 00:20:59;;;;;;;2.55;1.38;;;;;;;;;;5021293;28;20038;-65
2023/03/17 00:23:25;;;;;;;2.40;1.27;;;;;;;;;;5006921;28;20091;-73
2023/03/17 00:25:52;;;;;;;2.10;1.40;;;;;;;;;;5023701;28;20053;-66
2023/03/17 00:28:24;;;;;;;2.47;1.42;;;;;;;;;;5007080;28;20045;-70
2023/03/17 00:30:53;;;;;;;1.98;1.30;;;;;;;;;;5006905;28;20056;-73
2023/03/17 00:33:18;;;;;;;2.38;1.50;;;;;;;;;;5002063;28;20057;-68
2023/03/17 00:35:45;;;;;;;2.58;1.30;;;;;;;;;;4995494;28;20072;-68
2023/03/17 00:38:13;;;;;;;2.25;1.58;;;;;;;;;;5017465;28;20041;-70
2023/03/17 00:40:39;;;;;;;2.33;1.40;;;;;;;;;;5018163;28;20168;-63
2023/03/17 00:43:04;;;;;;;2.27;1.37;;;;;;;;;;4991187;28;20741;-69
2023/03/17 00:45:29;;;;;;;2.60;1.23;;;;;;;;;;5000000;28;20284;-70
2023/03/17 00:47:55;;;;;;;2.23;1.40;;;;;;;;;;4991177;28;20060;-72
2023/03/17 00:50:21;;;;;;;1.67;1.20;;;;;;;;;;4989127;28;20374;-67
2023/03/17 00:52:46;;;;;;;2.05;1.52;;;;;;;;;;4993177;28;20029;-69
2023/03/17 00:55:11;;;;;;;2.08;1.20;;;;;;;;;;5022545;28;20100;-62
2023/03/17 00:57:37;;;;;;;2.42;1.27;;;;;;;;;;5011871;28;20044;-67
2023/03/17 01:00:03;;;;;;;2.40;1.20;;;;;;;;;;5000091;28;20049;-69
2023/03/17 01:02:28;;;;;;;2.42;1.20;;;;;;;;;;5023339;28;20031;-73
2023/03/17 01:04:53;;;;;;;1.50;1.20;;;;;;;;;;5006490;28;20134;-70
2023/03/17 01:07:18;;;;;;;2.20;1.17;;;;;;;;;;5012095;28;20038;-69
2023/03/17 01:09:44;;;;;;;2.17;1.45;;;;;;;;;;5013082;28;20042;-65
2023/03/17 01:12:10;;;;;;;2.00;1.48;;;;;;;;;;5018922;28;20145;-66
2023/03/17 01:14:36;;;;;;;1.88;1.20;;;;;;;;;;5010667;28;20425;-66
2023/03/17 01:17:01;;;;;;;2.42;1.23;;;;;;;;;;4999215;28;20050;-65
2023/03/17 01:19:26;;;;;;;1.80;1.40;;;;;;;;;;5008179;28;20430;-69
2023/03/17 01:21:52;;;;;;;1.67;1.13;;;;;;;;;;4997274;28;20128;-67
2023/03/17 01:24:17;;;;;;;1.60;1.33;;;;;;;;;;5009021;28;20310;-68
2023/03/17 01:26:43;;;;;;;2.63;1.33;;;;;;;;;;5005940;28;20033;-67
2023/03/17 01:29:08;;;;;;;2.25;1.40;;;;;;;;;;4999934;28;20093;-67
2023/03/17 01:31:33;;;;;;;2.00;1.03;;;;;;;;;;4994062;28;20491;-64
2023/03/17 01:33:59;;;;;;;2.50;1.35;;;;;;;;;;4991712;28;20339;-64
2023/03/17 01:36:24;;;;;;;1.83;1.23;;;;;;;;;;5009519;28;20141;-71
2023/03/17 01:38:49;;;;;;;2.00;1.30;;;;;;;;;;5014120;28;20122;-69
2023/03/17 01:41:15;;;;;;;2.25;1.40;;;;;;;;;;5016686;28;20280;-66
2023/03/17 01:43:41;;;;;;;1.73;1.20;;;;;;;;;;5008910;28;20072;-66
2023/03/17 01:46:10;;;;;;;2.00;1.17;;;;;;;;;;5012691;28;20044;-70
2023/03/17 01:48:37;;;;;;;1.92;1.13;;;;;;;;;;5019897;28;20040;-74
2023/03/17 01:51:03;;;;;;;1.48;1.20;;;;;;;;;;4994746;28;20297;-64
2023/03/17 01:53:28;;;;;;;1.70;1.23;;;;;;;;;;4999438;28;20037;-62
2023/03/17 01:55:53;;;;;;;2.60;1.42;;;;;;;;;;5006799;28;20502;-67
2023/03/17 01:58:19;;;;;;;1.85;1.20;;;;;;;;;;5016343;28;20047;-70
2023/03/17 02:00:45;;;;;;;2.05;1.20;;;;;;;;;;4998471;28;20030;-70
2023/03/17 02:03:10;;;;;;;1.60;1.10;;;;;;;;;;5014945;28;20497;-66
2023/03/17 02:05:35;;;;;;;1.87;1.03;;;;;;;;;;5006262;28;20218;-64
2023/03/17 02:08:01;;;;;;;1.50;1.10;;;;;;;;;;4997588;28;20693;-69
2023/03/17 02:10:27;;;;;;;1.77;1.10;;;;;;;;;;4996020;28;20061;-67
2023/03/17 02:12:54;;;;;;;1.60;1.20;;;;;;;;;;5006195;28;20592;-70
2023/03/17 02:15:19;;;;;;;1.73;1.10;;;;;;;;;;5016692;28;20045;-65
2023/03/17 02:17:44;;;;;;;2.00;1.23;;;;;;;;;;5004929;28;20029;-69
2023/03/17 02:20:16;;;;;;;1.70;1.27;;;;;;;;;;4990744;28;20038;-69
2023/03/17 02:22:42;;;;;;;1.70;1.08;;;;;;;;;;5018202;28;20128;-67
2023/03/17 02:25:08;;;;;;;1.70;1.23;;;;;;;;;;4994707;28;20042;-66
2023/03/17 02:27:37;;;;;;;1.67;1.20;;;;;;;;;;4998204;28;20474;-66
2023/03/17 02:30:03;;;;;;;1.67;1.23;;;;;;;;;;5007259;28;20413;-63
2023/03/17 02:32:28;;;;;;;1.55;1.10;;;;;;;;;;5020536;28;20296;-70
2023/03/17 02:34:54;;;;;;;1.52;1.10;;;;;;;;;;4997339;28;20041;-70
2023/03/17 02:37:19;;;;;;;2.63;1.30;;;;;;;;;;5000759;28;20427;-67
2023/03/17 02:39:45;;;;;;;1.85;1.20;;;;;;;;;;5008120;28;20273;-69
2023/03/17 02:42:11;;;;;;;1.70;1.20;;;;;;;;;;5007597;28;20061;-69
2023/03/17 02:44:37;;;;;;;1.35;1.15;;;;;;;;;;5018813;28;20478;-67
2023/03/17 02:47:02;;;;;;;1.40;1.20;;;;;;;;;;5017434;28;20057;-63
2023/03/17 02:49:27;;;;;;;1.55;1.20;;;;;;;;;;5024347;28;20037;-65
2023/03/17 02:51:53;;;;;;;1.63;1.20;;;;;;;;;;5007295;28;20087;-66
2023/03/17 02:54:18;;;;;;;1.67;1.00;;;;;;;;;;4999273;28;20403;-64
2023/03/17 02:56:43;;;;;;;2.00;1.10;;;;;;;;;;5007995;28;20559;-67
2023/03/17 02:59:09;;;;;;;1.92;1.10;;;;;;;;;;5019814;28;20042;-68
2023/03/17 03:01:34;;;;;;;1.83;1.10;;;;;;;;;;5007940;28;20498;-64
2023/03/17 03:04:00;;;;;;;2.13;1.17;;;;;;;;;;4996452;28;20102;-70
2023/03/17 03:06:25;;;;;;;1.85;1.40;;;;;;;;;;5022127;28;20041;-63
2023/03/17 03:08:50;;;;;;;1.75;1.00;;;;;;;;;;5003798;28;20034;-66
2023/03/17 03:11:15;;;;;;;1.50;1.00;;;;;;;;;;5002404;28;20510;-69
2023/03/17 03:13:41;;;;;;;1.73;1.27;;;;;;;;;;4997637;28;20044;-71
2023/03/17 03:16:07;;;;;;;1.25;1.10;;;;;;;;;;5023934;28;21286;-66
2023/03/17 03:18:32;;;;;;;1.60;1.10;;;;;;;;;;5015818;28;20042;-65
2023/03/17 03:20:57;;;;;;;1.80;1.20;;;;;;;;;;5006986;28;20053;-64
2023/03/17 03:23:23;;;;;;;1.48;1.02;;;;;;;;;;5019784;28;20051;-65
2023/03/17 03:25:48;;;;;;;1.85;1.00;;;;;;;;;;5007245;28;20470;-69
2023/03/17 03:28:13;;;;;;;1.20;1.00;;;;;;;;;;5003823;28;20064;-68
2023/03/17 03:30:39;;;;;;;1.42;1.05;;;;;;;;;;5007649;28;20414;-68
2023/03/17 03:33:05;;;;;;;1.55;1.02;;;;;;;;;;5007228;28;20068;-69
2023/03/17 03:35:30;;;;;;;1.38;0.80;;;;;;;;;;5006431;28;20042;-70
2023/03/17 03:37:56;;;;;;;1.25;1.00;;;;;;;;;;5023176;28;20044;-71
2023/03/17 03:40:23;;;;;;;3.20;2.90;;;;;;;;;;5012916;28;20390;-67
2023/03/17 03:42:49;;;;;;;3.65;2.35;;;;;;;;;;4995658;28;20099;-68
2023/03/17 03:45:14;;;;;;;3.03;1.42;;;;;;;;;;5008619;28;20029;-71
2023/03/17 03:47:39;;;;;;;2.03;1.15;;;;;;;;;;5012177;28;20050;-67
2023/03/17 03:50:05;;;;;;;1.70;0.90;;;;;;;;;;5013873;28;20091;-67
2023/03/17 03:52:30;;;;;;;1.48;0.90;;;;;;;;;;5012847;28;20110;-72
2023/03/17 03:54:56;;;;;;;1.50;0.93;;;;;;;;;;5013394;28;20791;-66
2023/03/17 03:57:21;;;;;;;1.58;1.05;;;;;;;;;;5012918;28;20561;-70
2023/03/17 03:59:46;;;;;;;1.17;0.93;;;;;;;;;;5013819;28;20038;-71
2023/03/17 04:02:11;;;;;;;1.63;0.90;;;;;;;;;;5012642;28;20034;-72
2023/03/17 04:04:37;;;;;;;1.93;1.20;;;;;;;;;;5012257;28;20303;-69
2023/03/17 04:07:02;;;;;;;1.92;1.05;;;;;;;;;;5011382;28;20358;-68
2023/03/17 04:09:27;;;;;;;1.30;0.88;;;;;;;;;;5007760;28;20045;-66
2023/03/17 04:11:53;;;;;;;1.77;1.00;;;;;;;;;;5010882;28;20053;-69
2023/03/17 04:14:18;;;;;;;2.00;1.00;;;;;;;;;;5012053;28;20303;-60
2023/03/17 04:16:44;;;;;;;1.67;0.80;;;;;;;;;;5012209;28;20835;-75
2023/03/17 04:19:10;;;;;;;1.60;1.05;;;;;;;;;;5009936;28;20037;-68
2023/03/17 04:21:35;;;;;;;1.30;1.10;;;;;;;;;;5012609;28;20429;-71
2023/03/17 04:24:01;;;;;;;2.22;1.05;;;;;;;;;;5011800;28;20037;-74
2023/03/17 04:26:26;;;;;;;1.33;0.82;;;;;;;;;;5015118;28;20151;-69
2023/03/17 04:28:52;;;;;;;1.45;0.90;;;;;;;;;;5018016;28;20105;-70
2023/03/17 04:31:17;;;;;;;1.45;0.90;;;;;;;;;;5016508;28;20064;-63
2023/03/17 04:33:42;;;;;;;1.63;1.07;;;;;;;;;;5018738;28;20037;-66
2023/03/17 04:36:09;;;;;;;1.70;0.80;;;;;;;;;;5016245;28;20285;-67
2023/03/17 04:38:34;;;;;;;1.73;0.93;;;;;;;;;;4996891;28;20307;-65
2023/03/17 04:41:00;;;;;;;2.13;0.90;;;;;;;;;;5016449;28;20042;-77
2023/03/17 04:43:25;;;;;;;1.58;0.90;;;;;;;;;;5014683;28;20413;-68
2023/03/17 04:45:51;;;;;;;1.85;1.08;;;;;;;;;;5017513;28;20088;-69
2023/03/17 04:48:16;;;;;;;2.53;0.90;;;;;;;;;;5014645;28;20044;-67
2023/03/17 04:50:41;;;;;;;1.10;0.80;;;;;;;;;;5015618;28;20715;-60
2023/03/17 04:53:07;;;;;;;1.60;1.00;;;;;;;;;;5012426;28;20323;-68
2023/03/17 04:55:33;;;;;;;1.20;0.80;;;;;;;;;;4997642;28;20118;-65
2023/03/17 04:57:58;;;;;;;1.33;0.87;;;;;;;;;;5011603;28;20517;-61
2023/03/17 05:00:24;;;;;;;1.35;0.77;;;;;;;;;;5013496;28;20903;-70
2023/03/17 05:02:49;;;;;;;1.63;0.80;;;;;;;;;;5013561;28;20117;-67
2023/03/17 05:05:14;;;;;;;0.93;0.70;;;;;;;;;;5015154;28;20462;-68
2023/03/17 05:07:40;;;;;;;1.57;0.90;;;;;;;;;;5014004;28;20130;-71
2023/03/17 05:10:06;;;;;;;1.85;1.02;;;;;;;;;;5011542;28;20380;-66
2023/03/17 05:12:31;;;;;;;1.00;0.70;;;;;;;;;;4995844;28;20743;-65
2023/03/17 05:14:57;;;;;;;1.17;0.80;;;;;;;;;;5014880;28;20049;-64
2023/03/17 05:17:22;;;;;;;1.00;0.80;;;;;;;;;;5014637;28;20292;-67
2023/03/17 05:19:47;;;;;;;1.25;0.95;;;;;;;;;;5016670;28;20123;-62
2023/03/17 05:22:13;;;;;;;1.40;0.77;;;;;;;;;;5016823;28;20021;-64
2023/03/17 05:24:38;;;;;;;1.23;0.80;;;;;;;;;;5014438;28;20024;-63
2023/03/17 05:27:03;;;;;;;2.20;0.90;;;;;;;;;;5013138;28;20280;-67
2023/03/17 05:29:28;;;;;;;1.17;0.80;;;;;;;;;;5013992;28;20292;-67
2023/03/17 05:31:54;;;;;;;1.20;0.90;;;;;;;;;;5010117;28;20332;-67
2023/03/17 05:34:19;;;;;;;1.30;0.70;;;;;;;;;;5012062;28;20044;-72
2023/03/17 05:36:45;;;;;;;0.98;0.75;;;;;;;;;;5013452;28;20045;-66
2023/03/17 05:39:10;;;;;;;1.42;1.00;;;;;;;;;;5007179;28;20038;-67
2023/03/17 05:41:36;;;;;;;1.20;0.88;;;;;;;;;;5007630;28;20057;-69
2023/03/17 05:44:01;;;;;;;1.17;0.80;;;;;;;;;;5010183;28;20083;-62
2023/03/17 05:46:26;;;;;;;1.77;0.88;;;;;;;;;;5005786;28;20260;-68
2023/03/17 05:48:52;;;;;;;1.65;0.70;;;;;;;;;;5002159;28;20422;-68
2023/03/17 05:51:17;;;;;;;1.50;0.93;;;;;;;;;;5006342;28;20033;-70
2023/03/17 05:53:42;;;;;;;1.30;0.90;;;;;;;;;;5003227;28;20596;-62
2023/03/17 05:56:08;;;;;;;1.45;0.80;;;;;;;;;;5008052;28;20346;-69
2023/03/17 05:58:33;;;;;;;1.33;0.80;;;;;;;;;;4997541;28;20100;-68
2023/03/17 06:00:59;;;;;;;1.23;0.80;;;;;;;;;;5017114;28;20133;-65
2023/03/17 06:03:24;;;;;;;1.20;0.85;;;;;;;;;;5015716;28;20472;-69
2023/03/17 06:05:49;;;;;;;1.20;0.90;;;;;;;;;;5014219;28;20040;-69
2023/03/17 06:08:14;;;;;;;2.10;0.90;;;;;;;;;;5017436;28;20036;-70
2023/03/17 06:10:41;;;;;;;1.08;0.70;;;;;;;;;;5017587;28;20572;-68
2023/03/17 06:13:06;;;;;;;1.45;1.00;;;;;;;;;;5018721;28;20033;-64
2023/03/17 06:15:32;;;;;;;1.17;0.75;;;;;;;;;;5013726;28;20206;-60
2023/03/17 06:17:58;;;;;;;1.45;0.80;;;;;;;;;;5000737;28;20513;-71
2023/03/17 06:20:23;;;;;;;1.25;1.00;;;;;;;;;;4982289;28;20442;-65
2023/03/17 06:22:48;;;;;;;1.58;0.70;;;;;;;;;;5001541;28;20029;-67
2023/03/17 06:25:14;;;;;;;1.00;0.70;;;;;;;;;;5014340;28;20482;-70
2023/03/17 06:27:39;;;;;;;1.40;0.80;;;;;;;;;;5013073;28;20276;-69
2023/03/17 06:30:05;;;;;;;1.55;1.00;;;;;;;;;;5017647;28;20327;-70
2023/03/17 06:32:30;;;;;;;2.25;1.17;;;;;;;;;;5011988;28;20022;-69
2023/03/17 06:34:56;;;;;;;1.30;0.82;;;;;;;;;;5012051;28;20457;-70
2023/03/17 06:37:21;;;;;;;4.82;0.85;;;;;;;;;;4994161;28;20017;-66
2023/03/17 06:39:47;;;;;;;1.38;0.82;;;;;;;;;;4996854;28;20093;-64
2023/03/17 06:42:12;;;;;;;1.33;0.90;;;;;;;;;;5012388;28;20084;-64
2023/03/17 06:44:37;;;;;;;1.52;0.90;;;;;;;;;;4994188;28;20781;-69
2023/03/17 06:47:03;;;;;;;3.15;0.90;;;;;;;;;;5016441;28;20793;-65
2023/03/17 06:49:29;;;;;;;2.13;0.80;;;;;;;;;;5015857;28;20064;-68
2023/03/17 06:51:54;;;;;;;3.05;0.90;;;;;;;;;;4994651;28;20132;-74
2023/03/17 06:54:22;;;;;;;2.55;0.80;;;;;;;;;;5011720;28;20029;-64
2023/03/17 06:56:47;;;;;;;1.17;0.60;;;;;;;;;;5012976;28;20105;-67
2023/03/17 06:59:13;;;;;;;1.25;0.80;;;;;;;;;;4998352;28;20367;-66
2023/03/17 07:01:39;;;;;;;1.47;0.90;;;;;;;;;;4994825;28;20045;-65
2023/03/17 07:04:05;;;;;;;1.40;0.80;;;;;;;;;;5008549;28;20284;-69
2023/03/17 07:06:31;;;;;;;1.35;0.85;;;;;;;;;;4995130;28;20037;-66
2023/03/17 07:08:56;;;;;;;1.40;0.80;;;;;;;;;;5008262;28;20399;-64
2023/03/17 07:11:22;;;;;;;1.70;0.82;;;;;;;;;;4995210;28;20130;-62
2023/03/17 07:13:47;;;;;;;1.50;0.85;;;;;;;;;;5011362;28;20076;-70
2023/03/17 07:16:14;;;;;;;1.55;0.85;;;;;;;;;;5016734;28;20472;-66
2023/03/17 07:18:39;;;;;;;0.98;0.70;;;;;;;;;;5012068;28;20140;-69
2023/03/17 07:21:05;;;;;;;1.75;1.10;;;;;;;;;;5013886;28;20065;-62
2023/03/17 07:23:31;;;;;;;1.75;0.93;;;;;;;;;;5012778;28;20152;-63
2023/03/17 07:25:56;;;;;;;1.30;0.87;;;;;;;;;;4996913;28;20072;-65
2023/03/17 07:28:22;;;;;;;4.38;0.90;;;;;;;;;;5008475;28;20297;-65
2023/03/17 07:30:48;;;;;;;2.90;1.77;;;;;;;;;;4996880;28;20536;-66
2023/03/17 07:33:13;;;;;;;1.90;1.20;;;;;;;;;;4996873;28;20837;-64
2023/03/17 07:35:38;;;;;;;1.88;1.00;;;;;;;;;;4995754;28;20041;-60
2023/03/17 07:38:04;;;;;;;2.25;1.10;;;;;;;;;;4990919;28;20041;-64
2023/03/17 07:40:29;;;;;;;2.00;1.00;;;;;;;;;;5011277;28;20421;-72
2023/03/17 07:42:55;;;;;;;2.20;0.90;;;;;;;;;;4995987;28;20113;-68
2023/03/17 07:45:20;;;;;;;1.65;0.90;;;;;;;;;;5010652;28;20132;-62
2023/03/17 07:47:45;;;;;;;1.70;0.90;;;;;;;;;;5015285;28;20434;-71
2023/03/17 07:50:11;;;;;;;1.00;0.70;;;;;;;;;;5014972;28;20054;-67
2023/03/17 07:52:36;;;;;;;2.50;0.93;;;;;;;;;;4996561;28;20041;-71
2023/03/17 07:55:02;;;;;;;1.70;1.05;;;;;;;;;;5011294;28;20045;-68
2023/03/17 07:57:27;;;;;;;2.55;1.00;;;;;;;;;;4996559;28;20133;-69
2023/03/17 07:59:53;;;;;;;2.90;1.20;;;;;;;;;;5012554;28;20469;-67
2023/03/17 08:02:18;;;;;;;1.58;0.90;;;;;;;;;;5018935;28;20046;-65
2023/03/17 08:04:44;;;;;;;1.55;1.02;;;;;;;;;;5014491;28;20107;-74
2023/03/17 08:07:09;;;;;;;2.13;1.15;;;;;;;;;;5016356;28;20053;-67
2023/03/17 08:09:36;;;;;;;1.65;0.95;;;;;;;;;;5010399;28;20098;-66
2023/03/17 08:12:02;;;;;;;1.60;1.05;;;;;;;;;;4995828;28;20063;-67
2023/03/17 08:14:27;;;;;;;2.55;1.10;;;;;;;;;;5013731;28;20064;-62
2023/03/17 08:16:53;;;;;;;2.97;1.23;;;;;;;;;;5011691;28;20041;-66
2023/03/17 08:19:18;;;;;;;1.98;0.90;;;;;;;;;;5013044;28;20050;-68
2023/03/17 08:21:43;;;;;;;1.45;1.00;;;;;;;;;;5012494;28;20111;-69
2023/03/17 08:24:09;;;;;;;2.50;1.15;;;;;;;;;;5014419;28;20060;-69
2023/03/17 08:26:35;;;;;;;1.83;1.20;;;;;;;;;;5010789;28;20518;-69
2023/03/17 08:29:00;;;;;;;2.67;1.17;;;;;;;;;;5017901;28;20048;-68
2023/03/17 08:31:25;;;;;;;1.63;1.00;;;;;;;;;;5013108;28;20042;-70
2023/03/17 08:33:51;;;;;;;1.58;0.98;;;;;;;;;;5011809;28;20298;-71
2023/03/17 08:36:17;;;;;;;2.63;1.20;;;;;;;;;;4999679;28;20034;-67
2023/03/17 08:38:42;;;;;;;1.85;1.17;;;;;;;;;;4998547;28;20099;-67
2023/03/17 08:41:09;;;;;;;2.63;1.30;;;;;;;;;;5011000;28;20045;-74
2023/03/17 08:43:34;;;;;;;2.17;1.20;;;;;;;;;;5014157;28;20037;-66
2023/03/17 08:46:05;;;;;;;1.63;1.10;;;;;;;;;;5001636;28;20638;-65
2023/03/17 08:48:30;;;;;;;2.03;1.17;;;;;;;;;;5013706;28;20722;-67
2023/03/17 08:50:56;;;;;;;2.10;0.95;;;;;;;;;;5001454;28;20058;-69
2023/03/17 08:53:22;;;;;;;2.30;1.15;;;;;;;;;;4999356;28;20049;-65
2023/03/17 08:55:47;;;;;;;2.03;1.15;;;;;;;;;;4997288;28;20048;-70
2023/03/17 08:58:13;;;;;;;1.70;1.08;;;;;;;;;;5020673;28;20143;-66
2023/03/17 09:00:39;;;;;;;1.77;1.17;;;;;;;;;;5014272;28;20062;-64
2023/03/17 09:03:04;;;;;;;1.90;1.15;;;;;;;;;;5019920;28;20044;-64
2023/03/17 09:05:30;;;;;;;2.47;1.17;;;;;;;;;;5014430;28;20041;-72
2023/03/17 09:07:55;;;;;;;2.50;1.20;;;;;;;;;;5016647;28;20105;-73
2023/03/17 09:10:22;;;;;;;2.93;1.23;;;;;;;;;;5010862;28;21812;-66
2023/03/17 09:12:48;;;;;;;2.72;1.52;;;;;;;;;;5014025;28;20855;-70
2023/03/17 09:15:13;;;;;;;2.20;1.00;;;;;;;;;;5011986;28;20053;-68
2023/03/17 09:17:38;;;;;;;2.53;1.20;;;;;;;;;;5008709;28;20095;-65
2023/03/17 09:20:05;;;;;;;2.47;1.23;;;;;;;;;;5017369;28;20045;-69
2023/03/17 09:22:30;;;;;;;2.58;1.55;;;;;;;;;;5019258;28;20056;-74
2023/03/17 09:24:55;;;;;;;2.43;1.53;;;;;;;;;;5016445;28;20061;-72
2023/03/17 09:27:21;;;;;;;2.13;1.20;;;;;;;;;;5012834;28;20292;-74
2023/03/17 09:29:46;;;;;;;2.53;1.42;;;;;;;;;;5011269;28;20041;-66
2023/03/17 09:32:11;;;;;;;2.88;1.27;;;;;;;;;;4998071;28;20053;-66
2023/03/17 09:34:37;;;;;;;2.58;1.30;;;;;;;;;;5010746;28;20111;-65
2023/03/17 09:37:02;;;;;;;2.65;1.48;;;;;;;;;;5009558;28;20045;-66
2023/03/17 09:39:27;;;;;;;2.47;1.38;;;;;;;;;;5009437;28;20136;-67
2023/03/17 09:42:05;;;;;;;2.97;1.35;;;;;;;;;;4995050;28;20114;-64
2023/03/17 09:44:37;;;;;;;2.83;1.65;;;;;;;;;;5013381;28;20073;-67
2023/03/17 09:47:07;;;;;;;3.22;1.23;;;;;;;;;;5011671;28;20046;-65
2023/03/17 09:49:32;;;;;;;;;;;;;;;;;;5008670;28;20086;-64
2023/03/17 09:51:58;;;;;;;3.03;1.20;;;;;;;;;;5010509;28;20848;-66
2023/03/17 09:54:27;;;;;;;3.72;1.85;;;;;;;;;;5008984;28;20038;-69
2023/03/17 09:56:56;;;;;;;2.80;1.27;;;;;;;;;;5009094;28;20061;-70
2023/03/17 09:59:22;;;;;;;3.28;1.60;;;;;;;;;;5014351;28;20041;-65
2023/03/17 10:01:47;;;;;;;2.58;1.40;;;;;;;;;;5016650;28;20115;-65
2023/03/17 10:04:12;;;;;;;2.23;1.10;;;;;;;;;;5007709;28;20065;-69
2023/03/17 10:06:39;;;;;;;2.75;1.40;;;;;;;;;;4998334;28;20308;-67
2023/03/17 10:09:05;;;;;;;4.55;1.50;;;;;;;;;;5008691;28;20193;-68
2023/03/17 10:11:33;;;;;;;4.75;1.70;;;;;;;;;;5012835;28;20178;-66
2023/03/17 10:14:02;;;;;;;4.35;1.70;;;;;;;;;;5008744;28;20676;-63
2023/03/17 10:16:43;;;;;;;3.90;1.73;;;;;;;;;;5015773;28;20079;-67
2023/03/17 10:19:20;;;;;;;2.72;1.63;;;;;;;;;;5007776;28;20045;-66
2023/03/17 10:21:47;;;;;;;8.52;1.30;;;;;;;;;;4997483;28;20137;-69
2023/03/17 10:24:12;;;;;;;2.50;1.30;;;;;;;;;;5017395;28;20047;-67
2023/03/17 10:26:41;;;;;;;2.60;1.50;;;;;;;;;;4996840;28;20327;-68
2023/03/17 10:29:14;;;;;;;2.50;1.45;;;;;;;;;;4995916;28;20319;-67
2023/03/17 10:31:39;;;;;;;3.72;1.40;;;;;;;;;;4991826;28;20080;-66
2023/03/17 10:34:12;;;;;;;2.20;1.20;;;;;;;;;;4996042;28;20041;-66
2023/03/17 10:36:38;;;;;;;1.88;1.25;;;;;;;;;;4994701;28;20303;-67
2023/03/17 10:39:04;;;;;;;2.72;1.23;;;;;;;;;;4994155;28;20025;-65
2023/03/17 10:41:31;;;;;;;3.08;1.38;;;;;;;;;;5011543;28;20052;-66
2023/03/17 10:43:56;;;;;;;3.00;1.30;;;;;;;;;;4993718;28;20033;-72
2023/03/17 10:46:23;;;;;;;1.88;1.30;;;;;;;;;;5011776;28;20033;-70
2023/03/17 10:48:52;;;;;;;2.33;1.20;;;;;;;;;;4999286;28;20070;-72
2023/03/17 10:51:47;;;;;;;2.22;1.17;;;;;;;;;;5001708;28;20581;-66
2023/03/17 10:54:16;;;;;;;2.05;1.25;;;;;;;;;;5004093;28;20045;-67
2023/03/17 10:56:42;;;;;;;2.57;1.40;;;;;;;;;;4994613;28;20562;-63
2023/03/17 10:59:13;;;;;;;2.70;1.17;;;;;;;;;;5014736;28;20037;-66
2023/03/17 11:01:39;;;;;;;2.10;1.40;;;;;;;;;;4993836;28;20034;-62
2023/03/17 11:04:23;;;;;;;2.80;1.30;;;;;;;;;;5008614;28;20774;-67
2023/03/17 11:06:49;;;;;;;3.00;1.38;;;;;;;;;;5015174;28;20063;-66
2023/03/17 11:09:15;;;;;;;2.33;1.20;;;;;;;;;;4996943;28;20390;-67
2023/03/17 11:11:42;;;;;;;2.45;1.50;;;;;;;;;;5009793;28;20060;-62
2023/03/17 11:14:07;;;;;;;1.90;1.00;;;;;;;;;;4993792;28;20029;-68
2023/03/17 11:16:33;;;;;;;2.60;1.23;;;;;;;;;;5009459;28;20122;-64
2023/03/17 11:18:59;;;;;;;2.28;1.10;;;;;;;;;;4993716;28;20042;-66
2023/03/17 11:21:27;;;;;;;3.05;1.77;;;;;;;;;;4997035;28;20116;-68
2023/03/17 11:24:07;;;;;;;3.17;1.70;;;;;;;;;;5009697;28;20106;-66
2023/03/17 11:26:37;;;;;;;3.08;1.70;;;;;;;;;;4996809;28;20529;-70
2023/03/17 11:29:03;;;;;;;3.15;1.83;;;;;;;;;;5014816;28;20506;-65
2023/03/17 11:31:30;;;;;;;2.22;1.23;;;;;;;;;;5011631;28;20049;-68
2023/03/17 11:34:12;;;;;;;2.67;1.40;;;;;;;;;;5012583;28;20029;-72
2023/03/17 11:37:01;;;;;;;2.08;1.20;;;;;;;;;;5007091;28;20414;-69
2023/03/17 11:39:27;;;;;;;2.33;1.50;;;;;;;;;;4992309;28;20030;-71
2023/03/17 11:41:58;;;;;;;2.30;1.25;;;;;;;;;;5008705;28;20071;-81
2023/03/17 11:44:39;;;;;;;3.92;1.58;;;;;;;;;;5011698;28;20529;-66
2023/03/17 11:47:12;;;;;;;2.47;1.40;;;;;;;;;;5013816;28;20129;-68
2023/03/17 11:49:38;;;;;;;3.67;1.50;;;;;;;;;;5014579;28;20072;-62
2023/03/17 11:52:13;;;;;;;3.00;1.40;;;;;;;;;;5015775;28;20092;-68
2023/03/17 11:54:51;;;;;;;2.78;1.35;;;;;;;;;;5009666;28;20600;-66
2023/03/17 11:57:21;;;;;;;2.28;1.27;;;;;;;;;;5010473;28;20045;-75
2023/03/17 11:59:50;;;;;;;2.30;1.30;;;;;;;;;;5009972;28;20046;-66
2023/03/17 12:02:35;;;;;;;3.75;1.50;;;;;;;;;;5015232;28;20045;-68
2023/03/17 12:05:03;;;;;;;2.28;1.20;;;;;;;;;;5009930;28;20107;-69
2023/03/17 12:07:30;;;;;;;2.30;1.17;;;;;;;;;;4996932;28;20085;-68
2023/03/17 12:10:25;;;;;;;2.55;1.20;;;;;;;;;;5007472;28;20049;-66
2023/03/17 12:13:10;;;;;;;2.78;1.30;;;;;;;;;;4994078;28;21222;-68
2023/03/17 12:15:44;;;;;;;3.00;1.48;;;;;;;;;;4997179;28;20055;-64
2023/03/17 12:18:14;;;;;;;2.20;1.33;;;;;;;;;;5013971;28;20919;-69
2023/03/17 12:21:06;;;;;;;3.75;1.40;;;;;;;;;;5008354;28;20118;-68
2023/03/17 12:23:35;;;;;;;2.50;1.30;;;;;;;;;;4999118;28;20128;-69
2023/03/17 12:26:20;;;;;;;2.88;1.52;;;;;;;;;;5009338;28;20045;-74
2023/03/17 12:28:45;;;;;;;2.53;1.30;;;;;;;;;;5009485;28;20041;-71
2023/03/17 12:31:11;;;;;;;2.38;1.27;;;;;;;;;;5010993;28;20119;-68
2023/03/17 12:33:42;;;;;;;2.88;1.73;;;;;;;;;;4993185;28;20045;-66
2023/03/17 12:36:08;;;;;;;2.20;1.33;;;;;;;;;;4990076;28;20061;-72
2023/03/17 12:38:34;;;;;;;3.05;1.50;;;;;;;;;;4991630;28;20042;-65
2023/03/17 12:41:06;;;;;;;2.72;1.30;;;;;;;;;;5009453;28;21620;-66
2023/03/17 12:43:51;;;;;;;2.53;1.15;;;;;;;;;;5010198;28;20045;-70
2023/03/17 12:46:23;;;;;;;2.72;1.52;;;;;;;;;;5009956;28;20045;-67
2023/03/17 12:48:48;;;;;;;2.97;1.10;;;;;;;;;;5031359;28;20585;-71
2023/03/17 12:51:18;;;;;;;2.57;1.20;;;;;;;;;;5015823;28;20055;-68
2023/03/17 12:53:45;;;;;;;1.80;1.08;;;;;;;;;;5019562;28;20369;-68
2023/03/17 12:56:18;;;;;;;2.55;1.30;;;;;;;;;;5009275;28;20124;-71
2023/03/17 12:58:44;;;;;;;2.72;1.30;;;;;;;;;;5018442;28;20060;-69
2023/03/17 13:01:16;;;;;;;2.40;1.30;;;;;;;;;;5009826;28;20052;-69
2023/03/17 13:03:45;;;;;;;3.33;1.30;;;;;;;;;;5019668;28;20507;-65
2023/03/17 13:06:15;;;;;;;3.35;1.45;;;;;;;;;;4992722;28;20038;-66
2023/03/17 13:08:41;;;;;;;3.58;1.50;;;;;;;;;;4998301;28;20030;-69
2023/03/17 13:11:13;;;;;;;2.17;1.30;;;;;;;;;;5011775;28;20391;-68
2023/03/17 13:13:53;;;;;;;2.95;1.30;;;;;;;;;;5008160;28;20458;-66
2023/03/17 13:16:38;;;;;;;2.53;1.13;;;;;;;;;;5032795;28;20041;-64
2023/03/17 13:19:11;;;;;;;2.08;1.20;;;;;;;;;;5019975;28;20050;-65
2023/03/17 13:21:37;;;;;;;2.33;1.50;;;;;;;;;;4997259;28;20048;-67
2023/03/17 13:24:15;;;;;;;1.63;1.05;;;;;;;;;;5010578;28;20048;-68
2023/03/17 13:26:50;;;;;;;2.15;1.23;;;;;;;;;;5016062;28;20088;-71
2023/03/17 13:29:22;;;;;;;1.63;0.88;;;;;;;;;;5014421;28;20054;-70
2023/03/17 13:31:47;;;;;;;2.60;1.30;;;;;;;;;;4998862;28;20156;-70
2023/03/17 13:34:14;;;;;;;2.83;1.30;;;;;;;;;;5015097;28;20045;-69
2023/03/17 13:36:42;;;;;;;2.42;1.20;;;;;;;;;;4996279;28;20303;-66
2023/03/17 13:39:10;;;;;;;2.00;1.17;;;;;;;;;;5021670;28;20124;-67
2023/03/17 13:41:39;;;;;;;2.13;1.20;;;;;;;;;;5013902;28;20128;-69
2023/03/17 13:44:14;;;;;;;2.00;1.00;;;;;;;;;;5017480;28;20033;-70
2023/03/17 13:46:43;;;;;;;2.53;1.30;;;;;;;;;;5005858;28;20092;-67
2023/03/17 13:49:18;;;;;;;2.80;1.50;;;;;;;;;;4988244;28;20052;-67
2023/03/17 13:52:03;;;;;;;1.67;0.90;;;;;;;;;;4999649;28;20473;-67
2023/03/17 13:54:30;;;;;;;2.10;1.38;;;;;;;;;;4994715;28;20034;-68
2023/03/17 13:56:58;;;;;;;2.38;1.13;;;;;;;;;;5008337;28;20038;-67
2023/03/17 13:59:52;;;;;;;1.77;0.95;;;;;;;;;;4994692;28;20038;-65
2023/03/17 14:02:18;;;;;;;2.00;1.00;;;;;;;;;;4999309;28;20545;-64
2023/03/17 14:04:52;;;;;;;2.17;0.98;;;;;;;;;;5013102;28;20038;-66
2023/03/17 14:07:19;;;;;;;2.22;1.35;;;;;;;;;;5017841;28;20109;-66
2023/03/17 14:09:45;;;;;;;1.63;1.10;;;;;;;;;;5002148;28;20033;-73
2023/03/17 14:12:45;;;;;;;2.08;1.27;;;;;;;;;;5014775;28;20115;-70
2023/03/17 14:15:14;;;;;;;2.45;1.02;;;;;;;;;;5001239;28;20858;-67
2023/03/17 14:17:41;;;;;;;1.77;1.10;;;;;;;;;;5006687;28;20033;-69
2023/03/17 14:20:17;;;;;;;2.35;1.00;;;;;;;;;;5029188;28;20046;-67
2023/03/17 14:22:43;;;;;;;2.05;1.20;;;;;;;;;;5006144;28;20050;-70
2023/03/17 14:25:13;;;;;;;2.53;1.25;;;;;;;;;;5007963;28;20568;-69
2023/03/17 14:27:38;;;;;;;2.13;1.00;;;;;;;;;;5010021;28;20932;-66
2023/03/17 14:30:08;;;;;;;2.63;1.30;;;;;;;;;;4989718;28;20066;-68
2023/03/17 14:32:33;;;;;;;2.80;1.20;;;;;;;;;;5001557;28;20045;-68
2023/03/17 14:34:59;;;;;;;2.07;1.17;;;;;;;;;;5023057;28;20490;-64
2023/03/17 14:37:24;;;;;;;3.15;1.38;;;;;;;;;;5009373;28;20288;-70
2023/03/17 14:39:54;;;;;;;2.33;1.23;;;;;;;;;;5012744;28;20502;-69
2023/03/17 14:42:23;;;;;;;3.33;1.40;;;;;;;;;;4995165;28;20081;-67
2023/03/17 14:44:49;;;;;;;2.35;1.25;;;;;;;;;;5006330;28;20046;-66